createdAt,value
2022-09-16T00:01:29.409Z,101350.00
2022-09-16T00:04:02.135Z,101358.00
2022-09-16T00:06:34.909Z,101355.00
2022-09-16T00:09:07.960Z,101350.00
2022-09-16T00:11:41.165Z,101358.00
2022-09-16T00:14:14.519Z,101345.00
2022-09-16T00:16:47.468Z,101357.00
2022-09-16T00:19:20.139Z,101350.00
2022-09-16T00:21:53.357Z,101349.00
2022-09-16T00:24:26.236Z,101361.00
2022-09-16T00:26:59.115Z,101352.00
2022-09-16T00:29:31.837Z,101358.00
2022-09-16T00:32:04.697Z,101355.00
2022-09-16T00:34:37.461Z,101361.00
2022-09-16T00:37:11.564Z,101360.00
2022-09-16T00:39:44.479Z,101358.00
2022-09-16T00:42:17.302Z,101362.00
2022-09-16T00:45:09.794Z,101350.00
2022-09-16T00:47:53.732Z,101357.00
2022-09-16T00:50:38.496Z,101344.00
2022-09-16T00:53:13.810Z,101341.00
2022-09-16T00:55:48.382Z,101334.00
2022-09-16T00:58:29.191Z,101345.00
2022-09-16T01:01:02.069Z,101337.00
2022-09-16T01:03:36.435Z,101337.00
2022-09-16T01:06:09.927Z,101340.00
2022-09-16T01:08:43.928Z,101341.00
2022-09-16T01:11:16.889Z,101325.00
2022-09-16T01:13:51.238Z,101333.00
2022-09-16T01:16:35.013Z,101331.00
2022-09-16T01:19:23.019Z,101324.00
2022-09-16T01:22:01.013Z,101325.00
2022-09-16T01:24:52.403Z,101332.00
2022-09-16T01:27:45.201Z,101322.00
2022-09-16T01:30:22.815Z,101321.00
2022-09-16T01:33:10.519Z,101323.00
2022-09-16T01:36:14.208Z,101317.00
2022-09-16T01:38:54.595Z,101327.00
2022-09-16T01:41:35.430Z,101323.00
2022-09-16T01:44:13.441Z,101325.00
2022-09-16T01:47:00.334Z,101333.00
2022-09-16T01:49:41.408Z,101322.00
2022-09-16T01:52:34.613Z,101319.00
2022-09-16T01:55:09.389Z,101314.00
2022-09-16T01:57:59.199Z,101311.00
2022-09-16T02:00:33.603Z,101315.00
2022-09-16T02:03:14.447Z,101306.00
2022-09-16T02:06:04.610Z,101313.00
2022-09-16T02:08:45.144Z,101304.00
2022-09-16T02:11:20.683Z,101306.00
2022-09-16T02:14:04.402Z,101306.00
2022-09-16T02:16:48.391Z,101307.00
2022-09-16T02:19:26.070Z,101309.00
2022-09-16T02:22:01.542Z,101306.00
2022-09-16T02:24:36.421Z,101320.00
2022-09-16T02:27:11.546Z,101318.00
2022-09-16T02:29:52.500Z,101325.00
2022-09-16T02:32:26.752Z,101333.00
2022-09-16T02:35:01.148Z,101338.00
2022-09-16T02:37:44.946Z,101326.00
2022-09-16T02:40:23.100Z,101326.00
2022-09-16T02:42:56.165Z,101328.00
2022-09-16T02:45:34.459Z,101336.00
2022-09-16T02:48:37.906Z,101343.00
2022-09-16T02:51:10.554Z,101340.00
2022-09-16T02:53:48.168Z,101349.00
2022-09-16T02:56:25.838Z,101350.00
2022-09-16T02:58:58.679Z,101359.00
2022-09-16T03:01:33.707Z,101348.00
2022-09-16T03:04:06.819Z,101365.00
2022-09-16T03:06:40.984Z,101352.00
2022-09-16T03:09:15.635Z,101363.00
2022-09-16T03:12:07.554Z,101351.00
2022-09-16T03:14:48.254Z,101351.00
2022-09-16T03:17:44.342Z,101357.00
2022-09-16T03:20:40.664Z,101356.00
2022-09-16T03:23:31.618Z,101357.00
2022-09-16T03:26:21.634Z,101347.00
2022-09-16T03:29:12.627Z,101358.00
2022-09-16T03:31:50.066Z,101352.00
2022-09-16T03:34:42.927Z,101350.00
2022-09-16T03:37:17.830Z,101362.00
2022-09-16T03:39:55.733Z,101361.00
2022-09-16T03:42:28.560Z,101359.00
2022-09-16T03:45:01.376Z,101366.00
2022-09-16T03:47:34.095Z,101370.00
2022-09-16T03:50:06.985Z,101363.00
2022-09-16T03:52:39.728Z,101361.00
2022-09-16T03:55:13.286Z,101385.00
2022-09-16T03:57:46.012Z,101385.00
2022-09-16T04:00:19.176Z,101389.00
2022-09-16T04:02:52.054Z,101386.00
2022-09-16T04:05:25.114Z,101391.00
2022-09-16T04:07:58.074Z,101379.00
2022-09-16T04:10:30.974Z,101381.00
2022-09-16T04:13:03.791Z,101394.00
2022-09-16T04:15:37.536Z,101378.00
2022-09-16T04:18:10.498Z,101380.00
2022-09-16T04:20:44.005Z,101394.00
2022-09-16T04:23:16.962Z,101383.00
2022-09-16T04:25:51.130Z,101385.00
2022-09-16T04:28:24.036Z,101397.00
2022-09-16T04:30:57.167Z,101390.00
2022-09-16T04:33:32.309Z,101382.00
2022-09-16T04:36:16.695Z,101391.00
2022-09-16T04:38:50.601Z,101396.00
2022-09-16T04:41:25.112Z,101399.00
2022-09-16T04:43:59.217Z,101393.00
2022-09-16T04:46:34.168Z,101401.00
2022-09-16T04:49:07.196Z,101407.00
2022-09-16T04:51:40.117Z,101407.00
2022-09-16T04:54:14.122Z,101417.00
2022-09-16T04:56:46.980Z,101421.00
2022-09-16T04:59:19.760Z,101423.00
2022-09-16T05:01:52.734Z,101423.00
2022-09-16T05:04:25.573Z,101426.00
2022-09-16T05:06:58.402Z,101424.00
2022-09-16T05:09:31.422Z,101430.00
2022-09-16T05:12:04.160Z,101438.00
2022-09-16T05:14:36.941Z,101439.00
2022-09-16T05:17:10.184Z,101435.00
2022-09-16T05:19:42.884Z,101443.00
2022-09-16T05:22:15.832Z,101446.00
2022-09-16T05:24:48.764Z,101449.00
2022-09-16T05:27:21.675Z,101453.00
2022-09-16T05:29:54.575Z,101458.00
2022-09-16T05:32:27.317Z,101460.00
2022-09-16T05:35:00.162Z,101471.00
2022-09-16T05:37:33.157Z,101474.00
2022-09-16T05:40:06.441Z,101486.00
2022-09-16T05:42:39.257Z,101493.00
2022-09-16T05:45:13.029Z,101503.00
2022-09-16T05:47:45.862Z,101506.00
2022-09-16T05:50:19.044Z,101514.00
2022-09-16T05:52:51.767Z,101509.00
2022-09-16T05:55:28.819Z,101510.00
2022-09-16T05:58:01.777Z,101502.00
2022-09-16T06:00:34.966Z,101502.00
2022-09-16T06:03:08.093Z,101500.00
2022-09-16T06:05:45.547Z,101500.00
2022-09-16T06:08:14.861Z,101513.00
2022-09-16T06:10:47.574Z,101512.00
2022-09-16T06:13:21.566Z,101520.00
2022-09-16T06:15:57.147Z,101525.00
2022-09-16T06:18:31.278Z,101527.00
2022-09-16T06:21:08.929Z,101536.00
2022-09-16T06:23:42.707Z,101540.00
2022-09-16T06:26:20.283Z,101541.00
2022-09-16T06:28:53.266Z,101546.00
2022-09-16T06:31:28.141Z,101544.00
2022-09-16T06:34:01.578Z,101557.00
2022-09-16T06:36:36.078Z,101554.00
2022-09-16T06:39:09.246Z,101565.00
2022-09-16T06:41:42.274Z,101569.00
2022-09-16T06:44:15.269Z,101576.00
2022-09-16T06:46:48.331Z,101579.00
2022-09-16T06:49:21.514Z,101588.00
2022-09-16T06:51:54.765Z,101590.00
2022-09-16T06:54:27.881Z,101585.00
2022-09-16T06:57:00.637Z,101584.00
2022-09-16T06:59:33.803Z,101588.00
2022-09-16T07:02:06.782Z,101595.00
2022-09-16T07:04:40.912Z,101592.00
2022-09-16T07:07:14.416Z,101593.00
2022-09-16T07:09:47.287Z,101595.00
2022-09-16T07:12:20.099Z,101599.00
2022-09-16T07:14:53.064Z,101600.00
2022-09-16T07:17:27.336Z,101609.00
2022-09-16T07:20:00.373Z,101607.00
2022-09-16T07:22:34.598Z,101618.00
2022-09-16T07:25:07.635Z,101622.00
2022-09-16T07:27:40.410Z,101631.00
2022-09-16T07:30:13.919Z,101629.00
2022-09-16T07:32:46.905Z,101633.00
2022-09-16T07:35:19.767Z,101642.00
2022-09-16T07:37:52.675Z,101646.00
2022-09-16T07:40:29.104Z,101651.00
2022-09-16T07:42:59.373Z,101642.00
2022-09-16T07:45:32.592Z,101648.00
2022-09-16T07:48:08.393Z,101649.00
2022-09-16T07:50:40.054Z,101660.00
2022-09-16T07:53:12.872Z,101651.00
2022-09-16T07:55:45.788Z,101657.00
2022-09-16T07:58:23.195Z,101668.00
2022-09-16T08:00:57.682Z,101669.00
2022-09-16T08:03:30.241Z,101671.00
2022-09-16T08:06:12.473Z,101674.00
2022-09-16T08:08:45.477Z,101687.00
2022-09-16T08:11:19.255Z,101681.00
2022-09-16T08:13:52.219Z,101686.00
2022-09-16T08:16:26.987Z,101685.00
2022-09-16T08:19:01.662Z,101683.00
2022-09-16T08:21:34.762Z,101686.00
2022-09-16T08:24:10.988Z,101692.00
2022-09-16T08:26:43.963Z,101685.00
2022-09-16T08:29:17.421Z,101687.00
2022-09-16T08:31:50.792Z,101687.00
2022-09-16T08:34:23.866Z,101692.00
2022-09-16T08:36:56.874Z,101690.00
2022-09-16T08:39:29.931Z,101688.00
2022-09-16T08:42:10.058Z,101692.00
2022-09-16T08:44:53.934Z,101695.00
2022-09-16T08:47:58.636Z,101705.00
2022-09-16T08:50:33.455Z,101693.00
2022-09-16T08:53:08.274Z,101699.00
2022-09-16T08:55:42.832Z,101692.00
2022-09-16T08:58:24.074Z,101698.00
2022-09-16T09:01:05.404Z,101693.00
2022-09-16T09:03:49.035Z,101701.00
2022-09-16T09:06:23.765Z,101712.00
2022-09-16T09:08:58.401Z,101705.00
2022-09-16T09:12:08.519Z,101715.00
2022-09-16T09:14:44.827Z,101717.00
2022-09-16T09:17:23.752Z,101707.00
2022-09-16T09:20:17.579Z,101716.00
2022-09-16T09:23:06.857Z,101711.00
2022-09-16T09:25:43.283Z,101718.00
2022-09-16T09:28:33.172Z,101717.00
2022-09-16T09:31:10.903Z,101719.00
2022-09-16T09:33:47.326Z,101723.00
2022-09-16T09:36:39.685Z,101728.00
2022-09-16T09:39:23.998Z,101726.00
2022-09-16T09:42:08.471Z,101722.00
2022-09-16T09:44:52.717Z,101725.00
2022-09-16T09:47:28.050Z,101726.00
2022-09-16T09:50:08.415Z,101719.00
2022-09-16T09:52:49.612Z,101720.00
2022-09-16T09:55:24.299Z,101727.00
2022-09-16T09:58:05.489Z,101723.00
2022-09-16T10:00:38.471Z,101724.00
2022-09-16T10:03:19.259Z,101726.00
2022-09-16T10:05:52.969Z,101731.00
2022-09-16T10:08:27.993Z,101733.00
2022-09-16T10:11:02.493Z,101737.00
2022-09-16T10:13:35.932Z,101739.00
2022-09-16T10:16:13.840Z,101735.00
2022-09-16T10:18:47.722Z,101740.00
2022-09-16T10:21:21.372Z,101733.00
2022-09-16T10:24:01.228Z,101728.00
2022-09-16T10:26:35.001Z,101735.00
2022-09-16T10:29:09.755Z,101740.00
2022-09-16T10:31:45.261Z,101734.00
2022-09-16T10:34:37.789Z,101738.00
2022-09-16T10:37:15.409Z,101733.00
2022-09-16T10:39:56.254Z,101744.00
2022-09-16T10:42:32.950Z,101740.00
2022-09-16T10:45:22.969Z,101736.00
2022-09-16T10:47:58.582Z,101739.00
2022-09-16T10:50:31.991Z,101748.00
2022-09-16T10:53:09.549Z,101742.00
2022-09-16T10:55:42.518Z,101756.00
2022-09-16T10:58:22.631Z,101750.00
2022-09-16T11:01:23.595Z,101750.00
2022-09-16T11:04:07.365Z,101754.00
2022-09-16T11:07:03.662Z,101753.00
2022-09-16T11:09:38.428Z,101747.00
2022-09-16T11:12:32.963Z,101744.00
2022-09-16T11:15:12.937Z,101757.00
2022-09-16T11:18:08.983Z,101751.00
2022-09-16T11:21:08.908Z,101755.00
2022-09-16T11:23:46.336Z,101757.00
2022-09-16T11:26:21.027Z,101755.00
2022-09-16T11:29:05.560Z,101770.00
2022-09-16T11:31:56.482Z,101767.00
2022-09-16T11:34:53.427Z,101769.00
2022-09-16T11:37:43.247Z,101781.00
2022-09-16T11:40:47.116Z,101781.00
2022-09-16T11:43:28.042Z,101789.00
2022-09-16T11:46:06.060Z,101787.00
2022-09-16T11:48:41.309Z,101780.00
2022-09-16T11:51:16.342Z,101794.00
2022-09-16T11:53:57.744Z,101791.00
2022-09-16T11:56:48.860Z,101789.00
2022-09-16T11:59:38.887Z,101788.00
2022-09-16T12:02:25.807Z,101794.00
2022-09-16T12:05:26.319Z,101803.00
2022-09-16T12:08:31.691Z,101808.00
2022-09-16T12:11:15.307Z,101803.00
2022-09-16T12:14:06.903Z,101820.00
2022-09-16T12:17:12.276Z,101818.00
2022-09-16T12:19:56.250Z,101813.00
2022-09-16T12:22:37.010Z,101809.00
2022-09-16T12:25:27.220Z,101798.00
2022-09-16T12:28:02.224Z,101806.00
2022-09-16T12:30:43.096Z,101808.00
2022-09-16T12:33:29.611Z,101808.00
2022-09-16T12:36:09.644Z,101808.00
2022-09-16T12:38:43.004Z,101811.00
2022-09-16T12:41:23.481Z,101806.00
2022-09-16T12:44:30.370Z,101808.00
2022-09-16T12:46:55.065Z,101805.00
2022-09-16T12:50:01.771Z,101803.00
2022-09-16T12:52:54.829Z,101814.00
2022-09-16T12:55:52.235Z,101810.00
2022-09-16T12:58:32.919Z,101818.00
2022-09-16T13:01:20.167Z,101813.00
2022-09-16T13:04:06.950Z,101814.00
2022-09-16T13:06:41.603Z,101815.00
2022-09-16T13:09:35.282Z,101817.00
2022-09-16T13:12:36.681Z,101819.00
2022-09-16T13:14:49.430Z,101817.00
2022-09-16T13:17:32.727Z,101814.00
2022-09-16T13:20:25.743Z,101816.00
2022-09-16T13:23:03.801Z,101808.00
2022-09-16T13:25:41.658Z,101806.00
2022-09-16T13:28:41.331Z,101803.00
2022-09-16T13:31:20.669Z,101804.00
2022-09-16T13:34:05.301Z,101805.00
2022-09-16T13:36:38.895Z,101809.00
2022-09-16T13:39:16.728Z,101813.00
2022-09-16T13:41:51.212Z,101812.00
2022-09-16T13:44:35.438Z,101818.00
2022-09-16T13:47:19.433Z,101826.00
2022-09-16T13:49:59.835Z,101819.00
2022-09-16T13:52:39.600Z,101832.00
2022-09-16T13:55:26.832Z,101827.00
2022-09-16T13:58:04.777Z,101825.00
2022-09-16T14:00:56.140Z,101822.00
2022-09-16T14:03:52.627Z,101830.00
2022-09-16T14:06:48.978Z,101825.00
2022-09-16T14:09:55.220Z,101831.00
2022-09-16T14:12:49.314Z,101823.00
2022-09-16T14:15:23.850Z,101817.00
2022-09-16T14:18:01.107Z,101825.00
2022-09-16T14:20:34.984Z,101822.00
2022-09-16T14:23:09.417Z,101817.00
2022-09-16T14:25:42.737Z,101816.00
2022-09-16T14:28:26.772Z,101815.00
2022-09-16T14:31:01.282Z,101815.00
2022-09-16T14:33:36.251Z,101814.00
2022-09-16T14:36:19.833Z,101811.00
2022-09-16T14:38:54.729Z,101818.00
2022-09-16T14:41:38.322Z,101818.00
2022-09-16T14:44:24.610Z,101817.00
2022-09-16T14:47:21.840Z,101817.00
2022-09-16T14:49:46.893Z,101821.00
2022-09-16T14:52:27.328Z,101821.00
2022-09-16T14:55:03.872Z,101816.00
2022-09-16T14:57:37.380Z,101821.00
2022-09-16T15:00:12.356Z,101821.00
2022-09-16T15:02:53.200Z,101813.00
2022-09-16T15:05:40.052Z,101821.00
2022-09-16T15:08:15.085Z,101833.00
2022-09-16T15:10:52.990Z,101822.00
2022-09-16T15:13:31.086Z,101820.00
2022-09-16T15:16:05.831Z,101821.00
2022-09-16T15:18:40.553Z,101819.00
2022-09-16T15:21:24.112Z,101821.00
2022-09-16T15:23:59.623Z,101816.00
2022-09-16T15:26:48.061Z,101813.00
2022-09-16T15:29:26.274Z,101813.00
2022-09-16T15:32:00.669Z,101813.00
2022-09-16T15:34:33.379Z,101820.00
2022-09-16T15:37:06.390Z,101820.00
2022-09-16T15:39:41.921Z,101818.00
2022-09-16T15:42:26.968Z,101817.00
2022-09-16T15:45:01.642Z,101811.00
2022-09-16T15:47:39.163Z,101816.00
2022-09-16T15:50:16.803Z,101818.00
2022-09-16T15:52:58.130Z,101822.00
2022-09-16T15:55:41.817Z,101813.00
2022-09-16T15:58:33.279Z,101809.00
2022-09-16T16:01:17.110Z,101814.00
2022-09-16T16:03:52.026Z,101810.00
2022-09-16T16:06:25.240Z,101814.00
2022-09-16T16:08:59.331Z,101813.00
2022-09-16T16:11:32.865Z,101808.00
2022-09-16T16:14:05.713Z,101828.00
2022-09-16T16:17:01.502Z,101818.00
2022-09-16T16:19:13.527Z,101827.00
2022-09-16T16:21:47.814Z,101822.00
2022-09-16T16:24:20.636Z,101826.00
2022-09-16T16:26:56.691Z,101835.00
2022-09-16T16:29:27.563Z,101821.00
2022-09-16T16:32:05.599Z,101837.00
2022-09-16T16:34:40.288Z,101846.00
2022-09-16T16:37:33.851Z,101842.00
2022-09-16T16:39:49.249Z,101842.00
2022-09-16T16:42:22.892Z,101852.00
2022-09-16T16:44:55.886Z,101850.00
2022-09-16T16:47:28.799Z,101857.00
2022-09-16T16:50:02.668Z,101858.00
2022-09-16T16:52:35.590Z,101854.00
2022-09-16T16:55:08.628Z,101861.00
2022-09-16T16:57:41.469Z,101861.00
2022-09-16T17:00:16.228Z,101857.00
2022-09-16T17:02:49.436Z,101870.00
2022-09-16T17:05:21.990Z,101864.00
2022-09-16T17:07:54.698Z,101874.00
2022-09-16T17:10:27.767Z,101870.00
2022-09-16T17:13:00.745Z,101859.00
2022-09-16T17:15:33.610Z,101863.00
2022-09-16T17:18:06.470Z,101871.00
2022-09-16T17:20:39.585Z,101874.00
2022-09-16T17:23:12.347Z,101873.00
2022-09-16T17:25:46.189Z,101876.00
2022-09-16T17:28:20.123Z,101881.00
2022-09-16T17:30:53.004Z,101881.00
2022-09-16T17:33:25.954Z,101884.00
2022-09-16T17:36:10.244Z,101883.00
2022-09-16T17:38:43.351Z,101881.00
2022-09-16T17:41:18.369Z,101890.00
2022-09-16T17:43:52.474Z,101887.00
2022-09-16T17:46:29.724Z,101891.00
2022-09-16T17:49:13.210Z,101887.00
2022-09-16T17:51:46.041Z,101891.00
2022-09-16T17:54:19.232Z,101892.00
2022-09-16T17:56:52.024Z,101895.00
2022-09-16T17:59:24.955Z,101893.00
2022-09-16T18:01:57.836Z,101900.00
2022-09-16T18:04:30.947Z,101897.00
2022-09-16T18:07:03.782Z,101906.00
2022-09-16T18:09:36.747Z,101907.00
2022-09-16T18:12:09.966Z,101908.00
2022-09-16T18:14:42.813Z,101912.00
2022-09-16T18:17:15.746Z,101914.00
2022-09-16T18:19:48.772Z,101920.00
2022-09-16T18:22:21.629Z,101915.00
2022-09-16T18:24:54.403Z,101922.00
2022-09-16T18:27:28.010Z,101928.00
2022-09-16T18:30:00.842Z,101924.00
2022-09-16T18:32:33.724Z,101929.00
2022-09-16T18:35:06.697Z,101930.00
2022-09-16T18:37:39.246Z,101938.00
2022-09-16T18:40:13.554Z,101935.00
2022-09-16T18:42:46.477Z,101939.00
2022-09-16T18:45:19.558Z,101955.00
2022-09-16T18:47:52.320Z,101944.00
2022-09-16T18:50:25.139Z,101953.00
2022-09-16T18:52:57.902Z,101958.00
2022-09-16T18:55:30.744Z,101963.00
2022-09-16T18:58:03.811Z,101959.00
2022-09-16T19:00:37.732Z,101948.00
2022-09-16T19:03:10.499Z,101951.00
2022-09-16T19:05:43.378Z,101963.00
2022-09-16T19:08:16.102Z,101973.00
2022-09-16T19:10:49.057Z,101965.00
2022-09-16T19:13:22.075Z,101969.00
2022-09-16T19:15:56.132Z,101971.00
2022-09-16T19:18:38.318Z,101967.00
2022-09-16T19:21:18.818Z,101982.00
2022-09-16T19:23:54.001Z,101987.00
2022-09-16T19:26:26.930Z,101982.00
2022-09-16T19:29:00.397Z,101998.00
2022-09-16T19:31:33.871Z,101998.00
2022-09-16T19:34:06.784Z,101995.00
2022-09-16T19:36:40.610Z,101996.00
2022-09-16T19:39:14.438Z,101994.00
2022-09-16T19:41:47.661Z,101991.00
2022-09-16T19:44:21.327Z,101993.00
2022-09-16T19:46:54.056Z,102008.00
2022-09-16T19:49:27.331Z,102006.00
2022-09-16T19:52:00.355Z,102011.00
2022-09-16T19:54:33.212Z,102012.00
2022-09-16T19:57:06.330Z,102019.00
2022-09-16T19:59:39.417Z,102014.00
2022-09-16T20:02:13.496Z,102011.00
2022-09-16T20:04:46.291Z,102011.00
2022-09-16T20:07:19.713Z,102020.00
2022-09-16T20:09:52.545Z,102017.00
2022-09-16T20:12:25.859Z,102027.00
2022-09-16T20:14:58.979Z,102026.00
2022-09-16T20:17:31.751Z,102025.00
2022-09-16T20:20:04.780Z,102040.00
2022-09-16T20:22:37.689Z,102031.00
2022-09-16T20:25:22.464Z,102035.00
2022-09-16T20:27:45.085Z,102035.00
2022-09-16T20:30:19.570Z,102034.00
2022-09-16T20:32:52.626Z,102032.00
2022-09-16T20:35:25.429Z,102037.00
2022-09-16T20:37:58.286Z,102029.00
2022-09-16T20:40:31.253Z,102035.00
2022-09-16T20:43:04.386Z,102033.00
2022-09-16T20:45:39.254Z,102043.00
2022-09-16T20:48:12.203Z,102045.00
2022-09-16T20:50:44.955Z,102038.00
2022-09-16T20:53:17.792Z,102044.00
2022-09-16T20:55:50.600Z,102041.00
2022-09-16T20:58:23.611Z,102042.00
2022-09-16T21:00:56.518Z,102041.00
2022-09-16T21:03:29.392Z,102044.00
2022-09-16T21:06:10.596Z,102045.00
2022-09-16T21:08:43.841Z,102042.00
2022-09-16T21:11:21.241Z,102042.00
2022-09-16T21:14:02.212Z,102041.00
2022-09-16T21:16:35.983Z,102041.00
2022-09-16T21:19:13.673Z,102043.00
2022-09-16T21:21:49.073Z,102047.00
2022-09-16T21:24:21.943Z,102049.00
2022-09-16T21:26:55.655Z,102050.00
2022-09-16T21:29:29.183Z,102048.00
2022-09-16T21:32:02.311Z,102051.00
2022-09-16T21:34:35.219Z,102051.00
2022-09-16T21:37:08.027Z,102047.00
2022-09-16T21:39:40.968Z,102050.00
2022-09-16T21:42:13.915Z,102057.00
2022-09-16T21:44:47.201Z,102054.00
2022-09-16T21:47:20.095Z,102051.00
2022-09-16T21:49:53.956Z,102055.00
2022-09-16T21:52:26.991Z,102038.00
2022-09-16T21:55:00.013Z,102046.00
2022-09-16T21:57:32.849Z,102049.00
2022-09-16T22:00:06.359Z,102053.00
2022-09-16T22:02:39.382Z,102060.00
2022-09-16T22:05:12.833Z,102039.00
2022-09-16T22:07:45.611Z,102057.00
2022-09-16T22:10:18.739Z,102053.00
2022-09-16T22:12:51.536Z,102050.00
2022-09-16T22:15:24.607Z,102053.00
2022-09-16T22:17:57.472Z,102062.00
2022-09-16T22:20:30.437Z,102062.00
2022-09-16T22:23:03.398Z,102056.00
2022-09-16T22:25:37.429Z,102056.00
2022-09-16T22:28:10.205Z,102055.00
2022-09-16T22:30:43.410Z,102061.00
2022-09-16T22:33:16.657Z,102049.00
2022-09-16T22:35:49.624Z,102049.00
2022-09-16T22:38:22.531Z,102047.00
2022-09-16T22:40:55.259Z,102047.00
2022-09-16T22:43:28.150Z,102055.00
2022-09-16T22:46:03.028Z,102053.00
2022-09-16T22:48:36.093Z,102058.00
2022-09-16T22:51:09.136Z,102061.00
2022-09-16T22:53:42.783Z,102053.00
2022-09-16T22:56:17.561Z,102049.00
2022-09-16T22:58:52.185Z,102058.00
2022-09-16T23:01:26.797Z,102051.00
2022-09-16T23:04:01.270Z,102052.00
2022-09-16T23:06:35.263Z,102055.00
2022-09-16T23:09:09.452Z,102063.00
2022-09-16T23:11:42.248Z,102058.00
2022-09-16T23:14:29.242Z,102057.00
2022-09-16T23:17:02.183Z,102066.00
2022-09-16T23:19:34.944Z,102069.00
2022-09-16T23:22:07.733Z,102057.00
2022-09-16T23:24:43.555Z,102062.00
2022-09-16T23:27:16.514Z,102060.00
2022-09-16T23:29:49.210Z,102056.00
2022-09-16T23:32:22.451Z,102053.00
2022-09-16T23:34:55.810Z,102058.00
2022-09-16T23:37:28.749Z,102055.00
2022-09-16T23:40:02.129Z,102047.00
2022-09-16T23:42:36.320Z,102052.00
2022-09-16T23:45:09.625Z,102055.00
2022-09-16T23:47:42.735Z,102048.00
2022-09-16T23:50:15.446Z,102042.00
2022-09-16T23:52:48.491Z,102048.00
2022-09-16T23:55:21.355Z,102050.00
2022-09-16T23:57:54.661Z,102049.00
